Rankin Inlet Airport
CYRT : now visible

Airfield :











YOU CAN JOIN US ON...

 
LOGIN :

Register | Disclaimer

   EN    FR    IT 

 









Legend :    VFR   Marginal VFR   IFR   Intensive IFR   Very Intensive IFR
Visi :
Ceiling :
>= 8 km
>= 3000ft
5 to 8 km
1000 to 3000 ft
1500m to 5 km
500 to 1000 ft
800 to 1500m
200 to 500 ft
< 800m
< 200 ft
Symbols :   Thunderstorms  Fog  Heavy snow  Heavy precipitations  Wind > 20 kt






- Airport Elevation : 94 ft
- IATA code : YRT


CYRT - Rankin Inlet

CURRENT METAR :
  • 090100Z 17011KT 15SM OVC004 10/09 A2975 RMK ST8 SLP078

EXPIRED METARs :
  • 090048Z 17011KT 15SM BKN004 10/09 A2975 RMK SF7 VIS NE-E 3 BR OVR WTR SLP078
  • 090026Z 17011KT 15SM BKN006 11/09 A2975 RMK SC5 VIS E 3 BR OVR WTR SLP077
  • 090000Z 15011KT 15SM FEW004 11/09 A2975 RMK SC1 VIS E 3 BR OVR WTR SLP079
  • 082300Z 14011KT 15SM FEW004 11/09 A2975 RMK SF1 SF TR VIS E-S 2 BR OVR WTR SLP079

TAF TAF CYRT
Valid from the 09 at 00:00 until the 09 at 12:00 UTC


082338Z 0900/0912 15010KT P6SM SCT005
TEMPO 0900/0902 2SM BR BKN005
FM090200 12010KT 2SM BR BKN005 BKN010
TEMPO 0902/0912 P6SM NSW BKN010
PROB40 0902/0912 1/2SM FG BKN002 RMK NXT FCST BY 090600Z
CZEG FIR / North America



MET'MAP, your aeronautical weather chart ! - Copyright ORBIFLY December 2007 - Disclaimer

ORBIFLY MET'MAP TEAM :

Programming & Development : Alexandra Zaïnal
Concept & original design : Baudouin d'Aumeries
Assistance for programming : Marc-Olivier Méhu
Technical & hardware support : Manuel Goepfert

Contact : metmap@orbifly.com




SOURCES & CREDITS :

   NOAA       Earth
Advisory